TAF Text Data
IDs:
Format:
Raw Decoded Include METAR

Data at: 0456 UTC 30 Jun 2022

KDHN 292340Z 3000/3024 VRB04KT P6SM VCTS SCT040CB SCT100
  TEMPO 3000/3002 3SM -TSRA BKN040CB
  FM300400 VRB03KT P6SM SCT080
  FM301100 00000KT P6SM BKN035
  TEMPO 3011/3014 BKN020
  FM301500 09005KT P6SM SCT050
  FM301800 12005KT 6SM SHRA VCTS BKN050CB
  PROB30 3018/3024 VRB05G15KT 4SM TSRA